KCMX/CMX METAR and TAF weather

Enter ICAO airport designator
Station Type Date Time Source
KCMX METAR 2019/05/19 20:00 UTC NOAA

KCMX 192000Z AUTO 04017G26KT 6SM -RA SCT010 BKN022 OVC028 04/02 A2980 RMK AO2 P0000 T00440017


Station Type Date Time Source
KCMX Decoded METAR 2019/05/19 20:00 UTC NOAA

HANCOCK HOUGHTON CTY. MEMO, MI, United States (KCMX) 47-10N 088-29W 326M
May 19, 2019 - 04:00 PM EDT / 2019.05.19 2000 UTC
Wind: from the NE (040 degrees) at 20 MPH (17 KT) gusting to 30 MPH (26 KT):0
Visibility: 6 mile(s):0
Sky conditions: overcast
Weather: light rain
Precipitation last hour: A trace
Temperature: 39.9 F (4.4 C)
Dew Point: 35.1 F (1.7 C)
Relative Humidity: 82%
Pressure (altimeter): 29.8 in. Hg (1009 hPa)
ob: KCMX 192000Z AUTO 04017G26KT 6SM -RA SCT010 BKN022 OVC028 04/02 A2980 RMK AO2 P0000 T00440017
cycle: 20

Station Type Date Time Source
KCMX TAF 2019/05/19 18:42 UTC NOAA

TAF KCMX 191740Z 1918/2018 06015G25KT 2SM -RASN BR OVC006
FM192100 05018G25KT 2SM -RA BR OVC012
FM200400 01016G27KT 6SM -RA BR OVC013
FM200800 36013G23KT P6SM VCSH OVC025
FM201000 35011G20KT P6SM BKN035

Example: see airport list